Larache, Morocco
Current Conditions -  °F | °C
As of 7:00 AM on Sunday 26 Oct 2014 (Local Time) from GMTT Reporting Station
Clear Clear  
Wind Chill: 63°   Ceiling: Unl
Heat Index: 63°   Visibility: 1.3mi
Dew Point: 59°   Wind: 6mph
Humidity: 88%   Direction: 100°E
Pressure: 30.06"   Gusts: NA
Location:  35.2°N, 6.16°W
Report Text: GMTT 260600Z 10005KT 2200 NSC 17/15 Q1018 NOSIG
Loading
Personal Weather Stations






























Interactive Weather Map
Tropical Storm Tracking
New forecast layout! Learn more

10-Day Weather Forecast

Advertisements
Track Severe Weather on mobile